• Join FlightAware (Why Join?)
  • Login
  • US Flag 
07:34PM EDT


 

Airport Tracker/Info


-or-


 

Live Flight TrackerFlight Track Log ✈ KAP29 ✈ 08-Jun-2013 ✈ KSLK - KBOS

Flight Track Log - Related Links

Times and Time Zones

All times are in EDT time to prevent confusion due to time zone crossing. See the KAP29 flight status page for this flight to view local times or setup timezone preferences in your user account.

Time Position Orientation Groundspeed Altitude Reporting Facility
EDT Latitude Longitude Course Direction KTS MPH feet Rate Location/Type
03:50PM 44.3064 -74.3200 179° South 156 180 4,900  Level Boston Center
03:51PM 44.2669 -74.3186 179° South 151 174 5,800 720 Climbing Boston Center
03:52PM 44.2406 -74.2656 125° Southeast 120 138 6,400 480 Climbing Boston Center
03:53PM 44.2228 -74.2100 114° Southeast 132 152 6,800 300 Climbing Boston Center
03:54PM 44.2028 -74.1517 116° Southeast 154 177 7,000 300 Climbing Boston Center
03:55PM 44.1828 -74.0903 114° Southeast 176 203 7,500 420 Climbing Boston Center
03:56PM 44.1547 -74.0142 117° Southeast 176 203 8,000 480 Climbing Boston Center
03:57PM 44.1325 -73.9586 119° Southeast 171 197 8,500 420 Climbing Boston Center
03:58PM 44.1125 -73.9033 117° Southeast 166 191 8,900 240 Climbing Boston Center
03:59PM 44.0922 -73.8419 115° Southeast 166 191 9,000  Climbing Boston Center
04:00PM 44.0681 -73.7836 120° Southeast 172 198 9,000  Level Boston Center
04:01PM 44.0439 -73.7167 117° Southeast 178 205 9,000  Level Boston Center
04:02PM 44.0217 -73.6528 116° Southeast 183 211 9,000  Level Boston Center
04:03PM 43.9992 -73.5886 116° Southeast 183 211 9,000  Level Boston Center
04:04PM 43.9750 -73.5278 119° Southeast 178 205 9,000  Level Boston Center
04:05PM 43.9525 -73.4753 121° Southeast 178 205 9,000  Level Boston Center
04:06PM 43.9281 -73.4144 119° Southeast 178 205 9,000  Level Boston Center
04:07PM 43.9056 -73.3536 117° Southeast 178 205 9,000  Level Boston Center
04:08PM 43.8831 -73.2928 117° Southeast 178 205 9,000  Level Boston Center
04:09PM 43.8606 -73.2319 117° Southeast 178 205 9,000  Level Boston Center
04:10PM 43.8400 -73.1828 120° Southeast 178 205 9,000  Level Boston Center
04:11PM 43.8094 -73.1017 118° Southeast 178 205 9,000  Level Boston Center
04:12PM 43.7867 -73.0383 116° Southeast 178 205 9,000  Level Boston Center
04:13PM 43.7642 -72.9778 117° Southeast 178 205 9,000  Level Boston Center
04:14PM 43.7394 -72.9142 118° Southeast 178 205 9,000  Level Boston Center
04:15PM 43.7167 -72.8539 118° Southeast 178 205 9,000  Level Boston Center
04:16PM 43.6919 -72.7903 118° Southeast 178 205 9,000  Level Boston Center
04:17PM 43.6692 -72.7272 117° Southeast 178 205 9,000  Level Boston Center
04:18PM 43.6486 -72.6667 115° Southeast 178 205 9,000  Level Boston Center
04:19PM 43.6236 -72.6064 120° Southeast 178 205 9,100  Climbing Boston Center
04:20PM 43.6008 -72.5433 116° Southeast 178 205 9,100 -60 Level Boston Center
04:21PM 43.5717 -72.4744 120° Southeast 178 205 9,000 -60 Descending Boston Center
04:22PM 43.5508 -72.4144 116° Southeast 178 205 9,000  Level Boston Center
04:23PM 43.5258 -72.3514 119° Southeast 178 205 9,000  Level Boston Center
04:24PM 43.5028 -72.2914 118° Southeast 178 205 9,000  Level Boston Center
04:25PM 43.4733 -72.2169 119° Southeast 178 205 9,000  Level Boston Center
04:26PM 43.4503 -72.1569 118° Southeast 178 205 9,000  Level Boston Center
04:27PM 43.4253 -72.0942 119° Southeast 178 205 9,000 -60 Level Boston Center
04:28PM 43.4022 -72.0372 119° Southeast 178 205 8,900 -60 Descending Boston Center
04:29PM 43.3769 -71.9717 118° Southeast 178 205 8,900  Level Boston Center
04:30PM 43.3536 -71.9147 119° Southeast 178 205 8,900  Level Boston Center
04:31PM 43.3283 -71.8464 117° Southeast 178 205 8,900  Level Boston Center
04:32PM 43.3072 -71.7953 120° Southeast 178 205 8,900  Level Boston Center
04:33PM 43.2797 -71.7272 119° Southeast 178 205 8,900  Level Boston Center
04:34PM 43.2564 -71.6789 124° Southeast 178 205 8,900  Level Boston Center
04:35PM 43.2144 -71.6311 140° Southeast 167 192 8,900  Level Boston Center
04:36PM 43.1833 -71.6000 144° Southeast 172 198 8,900 -180 Level KA90
04:37PM 43.1500 -71.5500 132° Southeast 177 204 8,600 -360 Descending KA90
04:38PM 43.1000 -71.5000 144° Southeast 187 215 8,200 -420 Descending KA90
04:39PM 43.0667 -71.4500 132° Southeast 188 216 7,800 -420 Descending KA90
04:40PM 43.0333 -71.4167 144° Southeast 188 216 7,500 -420 Descending KA90
04:41PM 43.0000 -71.3833 144° Southeast 192 221 7,100 -300 Descending KA90
04:42PM 42.9500 -71.3167 136° Southeast 186 214 6,900 -300 Descending KA90
04:43PM 42.9167 -71.2833 144° Southeast 190 219 6,600 -360 Descending KA90
04:44PM 42.8833 -71.2500 144° Southeast 189 217 6,300 -360 Descending KA90
04:45PM 42.8333 -71.2000 144° Southeast 190 219 6,000 -300 Descending KA90
04:46PM 42.7833 -71.1500 144° Southeast 185 213 5,700 -300 Descending KA90
04:47PM 42.7500 -71.1167 144° Southeast 188 216 5,400 -420 Descending KA90
04:48PM 42.7167 -71.0833 144° Southeast 188 216 5,000 -480 Descending KA90
04:49PM 42.6667 -71.0333 144° Southeast 187 215 4,400 -540 Descending KA90
04:50PM 42.6167 -71.0000 154° Southeast 187 215 4,000 -420 Descending KA90
04:51PM 42.5667 -70.9833 166° South 182 209 3,700 -360 Descending KA90
04:52PM 42.5167 -70.9667 166° South 179 206 3,300 -600 Descending KA90
04:53PM 42.4833 -70.9667 180° South 179 206 2,600 -780 Descending KA90
04:54PM 42.4333 -70.9667 180° South 174 200 1,700 -1,020 Descending KA90
04:55PM 42.3833 -71.0000 206° Southwest 148 170 500 -1,200 Descending KA90
04:57PM 42.3630 -71.0064 184° South  Level Estimated
05:04PM 42.3630 -71.0064 184° South  Level Estimated